createdAt,value
2022-09-23T00:00:54.088Z,19.40
2022-09-23T00:01:54.138Z,19.40
2022-09-23T00:02:54.169Z,19.40
2022-09-23T00:03:54.125Z,19.39
2022-09-23T00:04:54.136Z,19.39
2022-09-23T00:05:54.156Z,19.38
2022-09-23T00:06:54.148Z,19.39
2022-09-23T00:07:54.176Z,19.39
2022-09-23T00:08:54.190Z,19.40
2022-09-23T00:09:54.225Z,19.40
2022-09-23T00:10:54.250Z,19.40
2022-09-23T00:11:54.261Z,19.35
2022-09-23T00:12:54.315Z,19.38
2022-09-23T00:13:54.287Z,19.38
2022-09-23T00:14:54.300Z,19.38
2022-09-23T00:15:54.341Z,19.35
2022-09-23T00:16:54.429Z,19.35
2022-09-23T00:17:54.356Z,19.34
2022-09-23T00:18:54.334Z,19.34
2022-09-23T00:19:54.358Z,19.34
2022-09-23T00:20:54.406Z,19.32
2022-09-23T00:21:54.393Z,19.31
2022-09-23T00:22:54.398Z,19.31
2022-09-23T00:23:54.449Z,19.30
2022-09-23T00:24:54.435Z,19.32
2022-09-23T00:25:54.463Z,19.32
2022-09-23T00:26:54.483Z,19.34
2022-09-23T00:27:54.518Z,19.34
2022-09-23T00:28:54.542Z,19.35
2022-09-23T00:29:54.526Z,19.35
2022-09-23T00:30:54.581Z,19.32
2022-09-23T00:31:54.584Z,19.31
2022-09-23T00:32:54.606Z,19.30
2022-09-23T00:33:54.635Z,19.30
2022-09-23T00:34:54.606Z,19.30
2022-09-23T00:35:54.633Z,19.30
2022-09-23T00:36:54.652Z,19.31
2022-09-23T00:37:54.699Z,19.31
2022-09-23T00:38:54.718Z,19.31
2022-09-23T00:39:54.711Z,19.31
2022-09-23T00:40:54.718Z,19.34
2022-09-23T00:41:54.751Z,19.32
2022-09-23T00:42:54.772Z,19.30
2022-09-23T00:43:54.801Z,19.30
2022-09-23T00:44:54.785Z,19.30
2022-09-23T00:45:54.868Z,19.27
2022-09-23T00:46:54.870Z,19.31
2022-09-23T00:47:54.835Z,19.28
2022-09-23T00:48:54.863Z,19.28
2022-09-23T00:49:54.872Z,19.27
2022-09-23T00:50:54.879Z,19.27
2022-09-23T00:51:54.948Z,19.25
2022-09-23T00:52:54.916Z,19.24
2022-09-23T00:53:54.979Z,19.25
2022-09-23T00:54:54.938Z,19.25
2022-09-23T00:55:54.975Z,19.23
2022-09-23T00:56:54.989Z,19.24
2022-09-23T00:57:55.014Z,19.25
2022-09-23T00:58:55.057Z,19.27
2022-09-23T00:59:55.036Z,19.27
2022-09-23T01:00:55.108Z,19.27
2022-09-23T01:01:55.093Z,19.27
2022-09-23T01:02:55.091Z,19.25
2022-09-23T01:03:55.136Z,19.24
2022-09-23T01:04:55.116Z,19.24
2022-09-23T01:05:55.106Z,19.23
2022-09-23T01:06:55.116Z,19.23
2022-09-23T01:07:55.137Z,19.21
2022-09-23T01:08:55.165Z,19.21
2022-09-23T01:09:55.195Z,19.23
2022-09-23T01:10:55.197Z,19.24
2022-09-23T01:11:55.214Z,19.20
2022-09-23T01:12:55.177Z,19.21
2022-09-23T01:13:55.204Z,19.21
2022-09-23T01:14:55.221Z,19.23
2022-09-23T01:15:55.271Z,19.23
2022-09-23T01:16:55.276Z,19.23
2022-09-23T01:17:55.242Z,19.23
2022-09-23T01:18:55.250Z,19.24
2022-09-23T01:19:55.267Z,19.24
2022-09-23T01:20:55.335Z,19.23
2022-09-23T01:21:55.286Z,19.23
2022-09-23T01:22:55.284Z,19.23
2022-09-23T01:23:55.310Z,19.24
2022-09-23T01:24:55.305Z,19.23
2022-09-23T01:25:55.378Z,19.21
2022-09-23T01:26:55.350Z,19.23
2022-09-23T01:27:55.319Z,19.23
2022-09-23T01:28:55.340Z,19.21
2022-09-23T01:29:55.368Z,19.23
2022-09-23T01:30:55.493Z,19.21
2022-09-23T01:31:55.429Z,19.24
2022-09-23T01:32:55.441Z,19.23
2022-09-23T01:33:55.417Z,19.21
2022-09-23T01:34:55.436Z,19.24
2022-09-23T01:35:55.466Z,19.23
2022-09-23T01:36:55.478Z,19.23
2022-09-23T01:37:56.034Z,19.23
2022-09-23T01:38:55.498Z,19.21
2022-09-23T01:39:55.501Z,19.23
2022-09-23T01:40:55.509Z,19.23
2022-09-23T01:41:55.556Z,19.23
2022-09-23T01:42:55.561Z,19.21
2022-09-23T01:43:55.576Z,19.21
2022-09-23T01:44:55.620Z,19.23
2022-09-23T01:45:55.635Z,19.21
2022-09-23T01:46:55.652Z,19.23
2022-09-23T01:47:55.984Z,19.20
2022-09-23T01:48:55.679Z,19.23
2022-09-23T01:49:55.693Z,19.20
2022-09-23T01:50:55.722Z,19.17
2022-09-23T01:51:55.741Z,19.20
2022-09-23T01:52:55.768Z,19.17
2022-09-23T01:53:55.795Z,19.17
2022-09-23T01:54:55.822Z,19.20
2022-09-23T01:55:55.841Z,19.17
2022-09-23T01:56:55.855Z,19.20
2022-09-23T01:57:55.920Z,19.17
2022-09-23T01:58:55.863Z,19.21
2022-09-23T01:59:55.887Z,19.17
2022-09-23T02:00:55.940Z,19.16
2022-09-23T02:01:56.034Z,19.17
2022-09-23T02:02:55.896Z,19.17
2022-09-23T02:03:56.098Z,19.16
2022-09-23T02:04:55.867Z,19.17
2022-09-23T02:05:55.913Z,19.16
2022-09-23T02:06:55.924Z,19.15
2022-09-23T02:07:55.952Z,19.13
2022-09-23T02:08:55.969Z,19.12
2022-09-23T02:09:55.958Z,19.13
2022-09-23T02:10:56.000Z,19.13
2022-09-23T02:11:58.686Z,19.13
2022-09-23T02:12:56.051Z,19.13
2022-09-23T02:13:56.047Z,19.12
2022-09-23T02:14:56.056Z,19.10
2022-09-23T02:15:56.051Z,19.12
2022-09-23T02:16:56.199Z,19.12
2022-09-23T02:17:56.114Z,19.12
2022-09-23T02:18:56.106Z,19.09
2022-09-23T02:19:56.120Z,19.09
2022-09-23T02:20:56.141Z,19.09
2022-09-23T02:21:56.172Z,19.10
2022-09-23T02:22:56.190Z,19.12
2022-09-23T02:23:56.231Z,19.10
2022-09-23T02:24:56.221Z,19.09
2022-09-23T02:25:56.259Z,19.09
2022-09-23T02:26:56.269Z,19.10
2022-09-23T02:27:56.287Z,19.10
2022-09-23T02:28:56.560Z,19.10
2022-09-23T02:29:56.331Z,19.09
2022-09-23T02:30:56.332Z,19.10
2022-09-23T02:31:56.424Z,19.09
2022-09-23T02:32:56.365Z,19.10
2022-09-23T02:33:56.389Z,19.07
2022-09-23T02:34:56.417Z,19.07
2022-09-23T02:35:56.444Z,19.09
2022-09-23T02:36:56.468Z,19.09
2022-09-23T02:37:56.519Z,19.07
2022-09-23T02:38:57.740Z,19.09
2022-09-23T02:39:56.534Z,19.07
2022-09-23T02:40:56.553Z,19.06
2022-09-23T02:41:56.568Z,19.07
2022-09-23T02:42:56.580Z,19.06
2022-09-23T02:43:56.588Z,19.06
2022-09-23T02:44:56.607Z,19.05
2022-09-23T02:45:56.672Z,19.06
2022-09-23T02:46:56.570Z,19.06
2022-09-23T02:47:56.597Z,19.06
2022-09-23T02:48:56.615Z,19.06
2022-09-23T02:49:56.628Z,19.02
2022-09-23T02:50:56.650Z,19.02
2022-09-23T02:51:56.673Z,19.02
2022-09-23T02:52:56.714Z,19.06
2022-09-23T02:53:56.733Z,19.06
2022-09-23T02:54:56.743Z,19.02
2022-09-23T02:55:56.763Z,19.02
2022-09-23T02:56:56.790Z,19.02
2022-09-23T02:57:56.816Z,19.05
2022-09-23T02:58:56.856Z,19.05
2022-09-23T02:59:56.881Z,19.05
2022-09-23T03:00:56.968Z,19.05
2022-09-23T03:01:57.067Z,19.02
2022-09-23T03:02:57.154Z,19.01
2022-09-23T03:03:56.929Z,18.99
2022-09-23T03:04:56.953Z,19.01
2022-09-23T03:05:56.971Z,19.02
2022-09-23T03:06:57.016Z,19.02
2022-09-23T03:07:56.988Z,19.02
2022-09-23T03:08:57.001Z,19.02
2022-09-23T03:09:57.031Z,18.99
2022-09-23T03:10:57.045Z,18.99
2022-09-23T03:11:57.069Z,18.99
2022-09-23T03:12:57.113Z,18.97
2022-09-23T03:13:57.080Z,18.99
2022-09-23T03:14:57.092Z,19.01
2022-09-23T03:15:57.109Z,18.99
2022-09-23T03:16:57.124Z,18.97
2022-09-23T03:17:57.187Z,18.97
2022-09-23T03:18:57.151Z,18.96
2022-09-23T03:19:57.161Z,18.97
2022-09-23T03:20:57.195Z,18.97
2022-09-23T03:21:57.226Z,18.96
2022-09-23T03:22:57.244Z,18.96
2022-09-23T03:23:57.224Z,18.97
2022-09-23T03:24:57.220Z,18.96
2022-09-23T03:25:57.255Z,18.96
2022-09-23T03:26:57.269Z,18.96
2022-09-23T03:27:57.303Z,18.96
2022-09-23T03:28:57.291Z,18.97
2022-09-23T03:29:57.326Z,18.94
2022-09-23T03:30:57.349Z,18.94
2022-09-23T03:31:57.439Z,18.93
2022-09-23T03:32:57.364Z,18.91
2022-09-23T03:33:57.388Z,18.93
2022-09-23T03:34:57.382Z,18.93
2022-09-23T03:35:57.438Z,18.91
2022-09-23T03:36:57.440Z,18.94
2022-09-23T03:37:57.416Z,18.91
2022-09-23T03:38:57.428Z,18.90
2022-09-23T03:39:57.460Z,18.93
2022-09-23T03:40:57.441Z,18.91
2022-09-23T03:41:57.483Z,18.90
2022-09-23T03:42:57.473Z,18.90
2022-09-23T03:43:57.486Z,18.89
2022-09-23T03:44:57.518Z,18.91
2022-09-23T03:45:57.722Z,18.90
2022-09-23T03:46:57.560Z,18.89
2022-09-23T03:47:57.583Z,18.90
2022-09-23T03:48:57.591Z,18.89
2022-09-23T03:49:57.655Z,18.90
2022-09-23T03:50:57.625Z,18.89
2022-09-23T03:51:57.620Z,18.90
2022-09-23T03:52:57.635Z,18.90
2022-09-23T03:53:57.652Z,18.89
2022-09-23T03:54:57.695Z,18.90
2022-09-23T03:55:57.706Z,18.87
2022-09-23T03:56:57.756Z,18.89
2022-09-23T03:57:57.779Z,18.86
2022-09-23T03:58:57.796Z,18.86
2022-09-23T03:59:57.818Z,18.86
2022-09-23T04:00:57.887Z,18.87
2022-09-23T04:01:57.901Z,18.89
2022-09-23T04:02:57.884Z,18.89
2022-09-23T04:03:57.840Z,18.89
2022-09-23T04:04:57.839Z,18.89
2022-09-23T04:05:57.985Z,18.89
2022-09-23T04:06:57.913Z,18.87
2022-09-23T04:07:57.922Z,18.87
2022-09-23T04:08:57.952Z,18.86
2022-09-23T04:09:57.965Z,18.86
2022-09-23T04:10:58.000Z,18.86
2022-09-23T04:11:58.018Z,18.86
2022-09-23T04:12:58.047Z,18.86
2022-09-23T04:13:58.074Z,18.87
2022-09-23T04:14:58.108Z,18.87
2022-09-23T04:15:58.157Z,18.87
2022-09-23T04:16:58.131Z,18.86
2022-09-23T04:17:58.142Z,18.82
2022-09-23T04:18:58.157Z,18.82
2022-09-23T04:19:58.178Z,18.83
2022-09-23T04:20:58.196Z,18.82
2022-09-23T04:21:58.237Z,18.83
2022-09-23T04:22:58.252Z,18.82
2022-09-23T04:23:58.216Z,18.79
2022-09-23T04:24:58.244Z,18.82
2022-09-23T04:25:58.261Z,18.82
2022-09-23T04:26:58.305Z,18.83
2022-09-23T04:27:58.276Z,18.82
2022-09-23T04:28:58.285Z,18.83
2022-09-23T04:29:58.344Z,18.83
2022-09-23T04:30:58.290Z,18.83
2022-09-23T04:31:58.352Z,18.79
2022-09-23T04:32:58.343Z,18.79
2022-09-23T04:33:58.375Z,18.79
2022-09-23T04:34:58.360Z,18.79
2022-09-23T04:35:58.373Z,18.79
2022-09-23T04:36:58.399Z,18.78
2022-09-23T04:37:58.439Z,18.79
2022-09-23T04:38:58.503Z,18.82
2022-09-23T04:39:58.453Z,18.78
2022-09-23T04:40:58.432Z,18.82
2022-09-23T04:41:58.466Z,18.78
2022-09-23T04:42:58.470Z,18.79
2022-09-23T04:43:58.523Z,18.79
2022-09-23T04:44:58.532Z,18.78
2022-09-23T04:45:58.514Z,18.78
2022-09-23T04:46:58.648Z,18.76
2022-09-23T04:47:58.558Z,18.75
2022-09-23T04:48:58.577Z,18.78
2022-09-23T04:49:59.984Z,18.78
2022-09-23T04:50:58.621Z,18.75
2022-09-23T04:51:58.642Z,18.75
2022-09-23T04:52:58.677Z,18.75
2022-09-23T04:53:58.675Z,18.75
2022-09-23T04:54:58.673Z,18.75
2022-09-23T04:55:58.684Z,18.75
2022-09-23T04:56:58.690Z,18.75
2022-09-23T04:57:58.731Z,18.74
2022-09-23T04:58:58.696Z,18.75
2022-09-23T04:59:58.726Z,18.75
2022-09-23T05:02:24.791Z,18.75
2022-09-23T05:03:24.699Z,18.74
2022-09-23T05:04:24.727Z,18.75
2022-09-23T05:05:24.753Z,18.75
2022-09-23T05:06:24.773Z,18.75
2022-09-23T05:07:24.801Z,18.76
2022-09-23T05:08:24.863Z,18.75
2022-09-23T05:09:24.892Z,18.75
2022-09-23T05:10:24.909Z,18.75
2022-09-23T05:11:24.879Z,18.75
2022-09-23T05:12:24.910Z,18.74
2022-09-23T05:13:24.932Z,18.74
2022-09-23T05:14:24.909Z,18.75
2022-09-23T05:15:24.932Z,18.74
2022-09-23T05:16:24.987Z,18.75
2022-09-23T05:17:24.929Z,18.75
2022-09-23T05:18:24.947Z,18.74
2022-09-23T05:19:24.973Z,18.75
2022-09-23T05:20:24.960Z,18.75
2022-09-23T05:21:24.989Z,18.74
2022-09-23T05:22:24.969Z,18.75
2022-09-23T05:23:25.006Z,18.75
2022-09-23T05:24:25.021Z,18.75
2022-09-23T05:25:25.070Z,18.75
2022-09-23T05:26:25.081Z,18.76
2022-09-23T05:27:25.057Z,18.76
2022-09-23T05:28:25.084Z,18.75
2022-09-23T05:29:25.101Z,18.75
2022-09-23T05:30:25.112Z,18.75
2022-09-23T05:31:25.190Z,18.75
2022-09-23T05:32:25.133Z,18.75
2022-09-23T05:33:25.146Z,18.75
2022-09-23T05:34:25.140Z,18.76
2022-09-23T05:35:25.175Z,18.78
2022-09-23T05:36:25.199Z,18.76
2022-09-23T05:37:25.198Z,18.76
2022-09-23T05:38:25.264Z,18.75
2022-09-23T05:39:25.240Z,18.76
2022-09-23T05:40:25.332Z,18.76
2022-09-23T05:41:25.299Z,18.76
2022-09-23T05:42:25.297Z,18.76
2022-09-23T05:43:25.255Z,18.79
2022-09-23T05:44:25.301Z,18.82
2022-09-23T05:45:26.910Z,18.82
2022-09-23T05:46:25.313Z,18.82
2022-09-23T05:47:25.286Z,18.83
2022-09-23T05:48:25.321Z,18.79
2022-09-23T05:49:37.907Z,18.83
2022-09-23T05:50:25.357Z,18.83
2022-09-23T05:51:28.848Z,18.82
2022-09-23T05:52:25.398Z,18.82
2022-09-23T05:53:25.416Z,18.83
2022-09-23T05:54:25.450Z,18.82
2022-09-23T05:55:25.431Z,18.82
2022-09-23T05:56:25.463Z,18.79
2022-09-23T05:57:25.498Z,18.83
2022-09-23T05:58:25.512Z,18.83
2022-09-23T05:59:25.502Z,18.84
2022-09-23T06:00:25.512Z,18.86
2022-09-23T06:01:25.602Z,18.84
2022-09-23T06:02:25.588Z,18.86
2022-09-23T06:03:25.669Z,18.86
2022-09-23T06:04:25.600Z,18.87
2022-09-23T06:05:25.716Z,18.87
2022-09-23T06:06:25.633Z,18.86
2022-09-23T06:07:25.599Z,18.87
2022-09-23T06:08:25.603Z,18.89
2022-09-23T06:09:25.614Z,18.87
2022-09-23T06:10:26.441Z,18.89
2022-09-23T06:11:25.693Z,18.89
2022-09-23T06:12:25.621Z,18.89
2022-09-23T06:13:25.681Z,18.90
2022-09-23T06:14:25.770Z,18.90
2022-09-23T06:15:25.743Z,18.91
2022-09-23T06:16:25.815Z,18.93
2022-09-23T06:17:25.733Z,18.94
2022-09-23T06:18:25.794Z,18.94
2022-09-23T06:19:25.752Z,18.93
2022-09-23T06:20:25.735Z,18.93
2022-09-23T06:21:25.711Z,18.91
2022-09-23T06:22:25.760Z,18.91
2022-09-23T06:23:26.718Z,18.93
2022-09-23T06:24:30.861Z,18.94
2022-09-23T06:25:25.820Z,18.94
2022-09-23T06:26:25.786Z,18.94
2022-09-23T06:27:25.824Z,18.94
2022-09-23T06:28:25.868Z,18.96
2022-09-23T06:29:25.862Z,18.96
2022-09-23T06:30:25.877Z,18.96
2022-09-23T06:31:25.968Z,18.96
2022-09-23T06:32:25.954Z,18.99
2022-09-23T06:33:35.074Z,19.01
2022-09-23T06:34:25.905Z,19.01
2022-09-23T06:35:27.657Z,18.99
2022-09-23T06:36:41.204Z,18.99
2022-09-23T06:37:25.916Z,19.01
2022-09-23T06:38:25.951Z,19.01
2022-09-23T06:39:26.142Z,19.02
2022-09-23T06:40:26.042Z,19.01
2022-09-23T06:41:26.012Z,19.01
2022-09-23T06:42:26.038Z,19.01
2022-09-23T06:43:26.066Z,19.01
2022-09-23T06:44:26.089Z,19.02
2022-09-23T06:45:26.090Z,19.02
2022-09-23T06:46:26.147Z,19.06
2022-09-23T06:47:26.103Z,19.05
2022-09-23T06:48:26.125Z,19.05
2022-09-23T06:49:26.168Z,19.06
2022-09-23T06:50:26.312Z,19.09
2022-09-23T06:51:26.201Z,19.09
2022-09-23T06:52:26.192Z,19.07
2022-09-23T06:53:26.172Z,19.07
2022-09-23T06:54:26.225Z,19.07
2022-09-23T06:55:26.229Z,19.06
2022-09-23T06:56:26.210Z,19.06
2022-09-23T06:57:26.225Z,19.09
2022-09-23T06:58:26.258Z,19.10
2022-09-23T06:59:26.260Z,19.10
2022-09-23T07:00:26.297Z,19.10
2022-09-23T07:01:26.437Z,19.09
2022-09-23T07:02:26.344Z,19.10
2022-09-23T07:03:26.226Z,19.10
2022-09-23T07:04:29.369Z,19.12
2022-09-23T07:05:26.314Z,19.12
2022-09-23T07:06:26.267Z,19.12
2022-09-23T07:07:26.329Z,19.13
2022-09-23T07:08:26.344Z,19.15
2022-09-23T07:09:26.319Z,19.15
2022-09-23T07:10:26.345Z,19.17
2022-09-23T07:11:26.374Z,19.16
2022-09-23T07:12:26.394Z,19.17
2022-09-23T07:13:26.365Z,19.20
2022-09-23T07:14:26.471Z,19.20
2022-09-23T07:15:26.424Z,19.20
2022-09-23T07:16:26.559Z,19.21
2022-09-23T07:17:26.580Z,19.23
2022-09-23T07:18:26.483Z,19.21
2022-09-23T07:19:26.505Z,19.21
2022-09-23T07:20:26.602Z,19.23
2022-09-23T07:21:26.468Z,19.21
2022-09-23T07:22:26.480Z,19.23
2022-09-23T07:23:26.494Z,19.23
2022-09-23T07:24:26.519Z,19.25
2022-09-23T07:25:26.596Z,19.25
2022-09-23T07:26:26.539Z,19.27
2022-09-23T07:27:26.522Z,19.25
2022-09-23T07:28:26.537Z,19.23
2022-09-23T07:29:26.553Z,19.27
2022-09-23T07:30:26.646Z,19.28
2022-09-23T07:31:38.577Z,19.32
2022-09-23T07:32:27.583Z,19.34
2022-09-23T07:33:32.299Z,19.35
2022-09-23T07:34:26.666Z,19.35
2022-09-23T07:35:26.636Z,19.40
2022-09-23T07:36:26.667Z,19.39
2022-09-23T07:37:26.678Z,19.42
2022-09-23T07:38:26.715Z,19.45
2022-09-23T07:39:26.723Z,19.47
2022-09-23T07:40:26.796Z,19.49
2022-09-23T07:41:26.777Z,19.52
2022-09-23T07:42:26.763Z,19.55
2022-09-23T07:43:26.779Z,19.58
2022-09-23T07:44:26.823Z,19.60
2022-09-23T07:45:26.796Z,19.61
2022-09-23T07:46:26.915Z,19.62
2022-09-23T07:47:26.806Z,19.64
2022-09-23T07:48:30.658Z,19.64
2022-09-23T07:49:26.828Z,19.67
2022-09-23T07:50:26.822Z,19.67
2022-09-23T07:51:26.847Z,19.68
2022-09-23T07:52:26.878Z,19.71
2022-09-23T07:53:26.861Z,19.75
2022-09-23T07:54:26.864Z,19.75
2022-09-23T07:55:26.884Z,19.76
2022-09-23T07:56:26.907Z,19.76
2022-09-23T07:57:26.965Z,19.79
2022-09-23T07:58:26.929Z,19.82
2022-09-23T07:59:26.932Z,19.85
2022-09-23T08:00:26.955Z,19.87
2022-09-23T08:01:27.043Z,19.90
2022-09-23T08:02:27.001Z,19.89
2022-09-23T08:03:26.966Z,19.94
2022-09-23T08:04:26.996Z,19.98
2022-09-23T08:05:27.063Z,20.00
2022-09-23T08:06:27.016Z,20.01
2022-09-23T08:07:27.031Z,20.01
2022-09-23T08:08:27.062Z,20.04
2022-09-23T08:09:27.119Z,20.05
2022-09-23T08:10:27.061Z,20.04
2022-09-23T08:11:27.048Z,20.04
2022-09-23T08:12:27.072Z,20.05
2022-09-23T08:13:27.078Z,20.07
2022-09-23T08:14:27.106Z,20.05
2022-09-23T08:15:27.215Z,20.05
2022-09-23T08:16:27.289Z,20.08
2022-09-23T08:17:27.306Z,20.08
2022-09-23T08:18:27.170Z,20.08
2022-09-23T08:19:27.175Z,20.08
2022-09-23T08:20:27.195Z,20.12
2022-09-23T08:21:27.220Z,20.10
2022-09-23T08:22:27.178Z,20.13
2022-09-23T08:23:27.178Z,20.12
2022-09-23T08:24:27.207Z,20.15
2022-09-23T08:25:27.263Z,20.13
2022-09-23T08:26:27.229Z,20.15
2022-09-23T08:27:27.246Z,20.13
2022-09-23T08:28:27.301Z,20.16
2022-09-23T08:29:27.258Z,20.15
2022-09-23T08:30:27.268Z,20.16
2022-09-23T08:31:27.354Z,20.16
2022-09-23T08:32:27.317Z,20.16
2022-09-23T08:33:27.373Z,20.19
2022-09-23T08:34:27.359Z,20.16
2022-09-23T08:35:27.326Z,20.16
2022-09-23T08:36:27.350Z,20.19
2022-09-23T08:37:27.370Z,20.19
2022-09-23T08:38:27.338Z,20.20
2022-09-23T08:39:27.332Z,20.22
2022-09-23T08:40:27.430Z,20.20
2022-09-23T08:41:27.365Z,20.22
2022-09-23T08:42:27.397Z,20.22
2022-09-23T08:43:27.410Z,20.22
2022-09-23T08:44:27.404Z,20.22
2022-09-23T08:45:27.417Z,20.23
2022-09-23T08:46:27.492Z,20.25
2022-09-23T08:47:27.467Z,20.25
2022-09-23T08:48:27.452Z,20.23
2022-09-23T08:49:27.426Z,20.23
2022-09-23T08:50:27.459Z,20.20
2022-09-23T08:51:27.474Z,20.23
2022-09-23T08:52:27.500Z,20.22
2022-09-23T08:53:28.423Z,20.22
2022-09-23T08:54:27.526Z,20.25
2022-09-23T08:55:27.539Z,20.23
2022-09-23T08:56:27.567Z,20.25
2022-09-23T08:57:27.590Z,20.26
2022-09-23T08:58:27.705Z,20.26
2022-09-23T08:59:27.615Z,20.27
2022-09-23T09:00:27.653Z,20.26
2022-09-23T09:01:27.716Z,20.26
2022-09-23T09:02:27.678Z,20.27
2022-09-23T09:03:27.620Z,20.27
2022-09-23T09:04:27.598Z,20.26
2022-09-23T09:05:27.612Z,20.26
2022-09-23T09:06:27.614Z,20.27
2022-09-23T09:07:42.995Z,20.30
2022-09-23T09:08:27.636Z,20.31
2022-09-23T09:09:27.654Z,20.31
2022-09-23T09:10:27.662Z,20.33
2022-09-23T09:11:27.690Z,20.31
2022-09-23T09:12:27.697Z,20.33
2022-09-23T09:13:27.741Z,20.34
2022-09-23T09:14:27.722Z,20.35
2022-09-23T09:15:27.809Z,20.37
2022-09-23T09:16:55.458Z,20.37
2022-09-23T09:17:31.691Z,20.37
2022-09-23T09:18:27.820Z,20.38
2022-09-23T09:19:27.836Z,20.37
2022-09-23T09:20:27.814Z,20.40
2022-09-23T09:21:27.864Z,20.41
2022-09-23T09:22:27.895Z,20.41
2022-09-23T09:23:27.960Z,20.41
2022-09-23T09:24:27.892Z,20.41
2022-09-23T09:25:32.072Z,20.46
2022-09-23T09:26:27.878Z,20.44
2022-09-23T09:27:27.899Z,20.50
2022-09-23T09:28:27.933Z,20.50
2022-09-23T09:29:35.280Z,20.51
2022-09-23T09:30:27.961Z,20.54
2022-09-23T09:31:28.081Z,20.56
2022-09-23T09:32:28.009Z,20.57
2022-09-23T09:33:28.031Z,20.58
2022-09-23T09:34:28.011Z,20.57
2022-09-23T09:35:28.058Z,20.61
2022-09-23T09:36:30.654Z,20.61
2022-09-23T09:37:28.088Z,20.63
2022-09-23T09:38:28.129Z,20.66
2022-09-23T09:39:28.115Z,20.66
2022-09-23T09:40:28.198Z,20.69
2022-09-23T09:41:28.168Z,20.69
2022-09-23T09:42:28.164Z,20.72
2022-09-23T09:43:28.240Z,20.72
2022-09-23T09:44:28.192Z,20.76
2022-09-23T09:45:28.185Z,20.79
2022-09-23T09:46:28.260Z,20.81
2022-09-23T09:47:28.253Z,20.82
2022-09-23T09:48:28.246Z,20.85
2022-09-23T09:49:28.227Z,20.87
2022-09-23T09:50:28.213Z,20.87
2022-09-23T09:51:28.245Z,20.87
2022-09-23T09:52:28.251Z,20.88
2022-09-23T09:53:28.202Z,20.91
2022-09-23T09:54:28.252Z,20.91
2022-09-23T09:55:28.203Z,20.94
2022-09-23T09:56:28.234Z,20.94
2022-09-23T09:57:32.178Z,20.94
2022-09-23T09:58:28.274Z,20.96
2022-09-23T09:59:28.270Z,20.97
2022-09-23T10:00:28.320Z,20.98
2022-09-23T10:01:28.371Z,21.03
2022-09-23T10:02:28.277Z,21.00
2022-09-23T10:03:28.330Z,21.03
2022-09-23T10:04:28.385Z,21.05
2022-09-23T10:05:28.314Z,21.05
2022-09-23T10:06:28.343Z,21.06
2022-09-23T10:07:28.357Z,21.05
2022-09-23T10:08:28.393Z,21.03
2022-09-23T10:09:28.396Z,21.03
2022-09-23T10:10:32.936Z,21.00
2022-09-23T10:11:28.391Z,20.98
2022-09-23T10:12:28.404Z,20.97
2022-09-23T10:13:28.429Z,20.96
2022-09-23T10:14:28.387Z,20.96
2022-09-23T10:15:28.413Z,20.93
2022-09-23T10:16:28.466Z,20.93
2022-09-23T10:17:28.428Z,20.90
2022-09-23T10:18:28.405Z,20.91
2022-09-23T10:19:28.428Z,20.90
2022-09-23T10:20:28.436Z,20.87
2022-09-23T10:21:28.433Z,20.85
2022-09-23T10:22:28.460Z,20.85
2022-09-23T10:23:28.486Z,20.85
2022-09-23T10:24:28.518Z,20.83
2022-09-23T10:25:28.501Z,20.83
2022-09-23T10:26:28.528Z,20.81
2022-09-23T10:27:28.527Z,20.81
2022-09-23T10:28:28.571Z,20.81
2022-09-23T10:29:28.609Z,20.81
2022-09-23T10:30:28.630Z,20.82
2022-09-23T10:31:28.585Z,20.82
2022-09-23T10:32:28.595Z,20.81
2022-09-23T10:33:28.726Z,20.81
2022-09-23T10:34:28.633Z,20.79
2022-09-23T10:35:28.614Z,20.79
2022-09-23T10:36:28.646Z,20.81
2022-09-23T10:37:28.625Z,20.81
2022-09-23T10:38:28.681Z,20.82
2022-09-23T10:39:28.683Z,20.81
2022-09-23T10:40:28.703Z,20.81
2022-09-23T10:41:29.038Z,20.79
2022-09-23T10:42:28.708Z,20.82
2022-09-23T10:43:28.746Z,20.83
2022-09-23T10:44:28.697Z,20.87
2022-09-23T10:45:28.778Z,20.90
2022-09-23T10:46:28.830Z,20.93
2022-09-23T10:47:28.754Z,20.94
2022-09-23T10:48:28.725Z,20.97
2022-09-23T10:49:28.785Z,21.01
2022-09-23T10:50:28.756Z,21.05
2022-09-23T10:51:31.770Z,21.08
2022-09-23T10:52:28.739Z,21.11
2022-09-23T10:53:28.757Z,21.12
2022-09-23T10:54:28.810Z,21.16
2022-09-23T10:55:28.777Z,21.18
2022-09-23T10:56:28.868Z,21.21
2022-09-23T10:57:35.976Z,21.24
2022-09-23T10:58:28.854Z,21.26
2022-09-23T10:59:28.875Z,21.27
2022-09-23T11:00:28.862Z,21.28
2022-09-23T11:01:28.910Z,21.30
2022-09-23T11:02:28.874Z,21.30
2022-09-23T11:03:28.849Z,21.31
2022-09-23T11:04:28.997Z,21.36
2022-09-23T11:05:28.898Z,21.36
2022-09-23T11:06:28.911Z,21.37
2022-09-23T11:07:28.908Z,21.38
2022-09-23T11:08:28.942Z,21.40
2022-09-23T11:09:29.493Z,21.42
2022-09-23T11:10:45.369Z,21.40
2022-09-23T11:11:29.020Z,21.42
2022-09-23T11:12:29.030Z,21.45
2022-09-23T11:13:29.081Z,21.48
2022-09-23T11:14:29.069Z,21.46
2022-09-23T11:15:29.110Z,21.46
2022-09-23T11:16:29.206Z,21.46
2022-09-23T11:17:29.134Z,21.46
2022-09-23T11:18:29.139Z,21.45
2022-09-23T11:19:29.211Z,21.46
2022-09-23T11:20:29.168Z,21.45
2022-09-23T11:21:29.220Z,21.43
2022-09-23T11:22:29.247Z,21.45
2022-09-23T11:23:29.238Z,21.43
2022-09-23T11:24:29.263Z,21.45
2022-09-23T11:25:29.285Z,21.45
2022-09-23T11:26:33.141Z,21.45
2022-09-23T11:27:29.373Z,21.43
2022-09-23T11:28:29.386Z,21.43
2022-09-23T11:29:29.396Z,21.45
2022-09-23T11:30:29.544Z,21.46
2022-09-23T11:31:29.412Z,21.46
2022-09-23T11:32:29.452Z,21.46
2022-09-23T11:33:29.503Z,21.48
2022-09-23T11:34:29.468Z,21.48
2022-09-23T11:35:29.455Z,21.48
2022-09-23T11:36:29.473Z,21.48
2022-09-23T11:37:29.525Z,21.48
2022-09-23T11:38:29.505Z,21.49
2022-09-23T11:39:29.509Z,21.49
2022-09-23T11:40:29.593Z,21.51
2022-09-23T11:41:29.526Z,21.51
2022-09-23T11:42:29.541Z,21.52
2022-09-23T11:43:29.572Z,21.52
2022-09-23T11:44:29.609Z,21.52
2022-09-23T11:45:29.667Z,21.53
2022-09-23T11:46:29.738Z,21.53
2022-09-23T11:47:29.644Z,21.52
2022-09-23T11:48:29.623Z,21.53
2022-09-23T11:49:29.676Z,21.53
2022-09-23T11:50:29.674Z,21.53
2022-09-23T11:51:29.691Z,21.56
2022-09-23T11:52:29.701Z,21.55
2022-09-23T11:53:29.735Z,21.56
2022-09-23T11:54:29.718Z,21.56
2022-09-23T11:55:29.744Z,21.56
2022-09-23T11:56:35.426Z,21.56
2022-09-23T11:57:39.095Z,21.58
2022-09-23T11:58:29.880Z,21.58
2022-09-23T11:59:38.840Z,21.56
2022-09-23T12:00:29.836Z,21.56
2022-09-23T12:01:36.473Z,21.56
2022-09-23T12:02:31.223Z,21.56
2022-09-23T12:03:41.626Z,21.58
2022-09-23T12:04:30.499Z,21.56
2022-09-23T12:05:30.060Z,21.55
2022-09-23T12:06:29.912Z,21.56
2022-09-23T12:07:29.926Z,21.58
2022-09-23T12:08:29.948Z,21.56
2022-09-23T12:09:53.829Z,21.56
2022-09-23T12:10:30.001Z,21.56
2022-09-23T12:11:30.032Z,21.58
2022-09-23T12:12:30.019Z,21.58
2022-09-23T12:13:30.048Z,21.56
2022-09-23T12:14:30.065Z,21.58
2022-09-23T12:15:30.070Z,21.56
2022-09-23T12:16:30.180Z,21.59
2022-09-23T12:17:30.093Z,21.59
2022-09-23T12:18:30.114Z,21.61
2022-09-23T12:19:30.115Z,21.59
2022-09-23T12:20:30.125Z,21.61
2022-09-23T12:21:49.204Z,21.61
2022-09-23T12:22:30.159Z,21.61
2022-09-23T12:23:30.199Z,21.61
2022-09-23T12:24:30.214Z,21.63
2022-09-23T12:25:30.240Z,21.63
2022-09-23T12:26:30.276Z,21.66
2022-09-23T12:27:30.299Z,21.66
2022-09-23T12:28:30.326Z,21.66
2022-09-23T12:29:30.358Z,21.67
2022-09-23T12:30:30.464Z,21.67
2022-09-23T12:31:30.408Z,21.68
2022-09-23T12:32:30.427Z,21.68
2022-09-23T12:33:30.474Z,21.70
2022-09-23T12:34:30.468Z,21.71
2022-09-23T12:35:30.490Z,21.71
2022-09-23T12:36:30.465Z,21.71
2022-09-23T12:37:30.521Z,21.71
2022-09-23T12:38:30.517Z,21.73
2022-09-23T12:39:30.565Z,21.73
2022-09-23T12:40:30.626Z,21.73
2022-09-23T12:41:30.549Z,21.74
2022-09-23T12:42:31.445Z,21.74
2022-09-23T12:43:30.556Z,21.74
2022-09-23T12:44:30.603Z,21.74
2022-09-23T12:45:30.612Z,21.75
2022-09-23T12:46:30.571Z,21.75
2022-09-23T12:47:30.593Z,21.75
2022-09-23T12:48:30.598Z,21.79
2022-09-23T12:49:30.590Z,21.77
2022-09-23T12:50:30.619Z,21.81
2022-09-23T12:51:30.635Z,21.81
2022-09-23T12:52:30.628Z,21.81
2022-09-23T12:53:30.720Z,21.81
2022-09-23T12:54:30.652Z,21.82